createdAt,value
2022-12-06T00:01:14.411Z,101469.25
2022-12-06T00:03:43.925Z,101464.09
2022-12-06T00:06:13.757Z,101467.94
2022-12-06T00:08:41.935Z,101452.13
2022-12-06T00:11:11.978Z,101457.78
2022-12-06T00:13:42.270Z,101462.22
2022-12-06T00:16:12.955Z,101438.13
2022-12-06T00:18:43.416Z,101457.34
2022-12-06T00:21:13.054Z,101445.81
2022-12-06T00:23:42.419Z,101443.38
2022-12-06T00:26:11.145Z,101439.38
2022-12-06T00:28:39.715Z,101436.81
2022-12-06T00:31:10.944Z,101428.94
2022-12-06T00:33:39.175Z,101422.06
2022-12-06T00:36:10.956Z,101421.25
2022-12-06T00:38:38.826Z,101418.66
2022-12-06T00:41:08.791Z,101406.16
2022-12-06T00:43:38.152Z,101402.59
2022-12-06T00:46:09.497Z,101392.91
2022-12-06T00:48:37.491Z,101398.56
2022-12-06T00:51:05.605Z,101399.56
2022-12-06T00:53:33.575Z,101392.00
2022-12-06T00:56:01.515Z,101389.31
2022-12-06T00:58:29.504Z,101388.56
2022-12-06T01:00:57.559Z,101385.84
2022-12-06T01:03:29.704Z,101371.63
2022-12-06T01:06:05.056Z,101374.34
2022-12-06T01:08:33.537Z,101359.50
2022-12-06T01:11:01.452Z,101367.25
2022-12-06T01:13:30.070Z,101365.53
2022-12-06T01:15:58.488Z,101358.13
2022-12-06T01:18:27.750Z,101355.56
2022-12-06T01:20:55.648Z,101351.03
2022-12-06T01:23:23.540Z,101343.19
2022-12-06T01:25:52.345Z,101343.19
2022-12-06T01:28:20.321Z,101337.91
2022-12-06T01:30:48.447Z,101335.38
2022-12-06T01:33:16.396Z,101330.22
2022-12-06T01:35:45.660Z,101323.97
2022-12-06T01:38:13.906Z,101322.28
2022-12-06T01:40:43.300Z,101318.97
2022-12-06T01:43:36.599Z,101315.28
2022-12-06T01:46:11.993Z,101311.28
2022-12-06T01:48:41.693Z,101315.56
2022-12-06T01:51:14.058Z,101305.72
2022-12-06T01:53:45.263Z,101305.13
2022-12-06T01:56:14.070Z,101304.31
2022-12-06T01:58:45.553Z,101306.16
2022-12-06T02:01:13.734Z,101293.63
2022-12-06T02:03:42.307Z,101295.59
2022-12-06T02:06:11.772Z,101291.19
2022-12-06T02:08:40.476Z,101287.66
2022-12-06T02:11:09.953Z,101286.91
2022-12-06T02:13:38.498Z,101292.19
2022-12-06T02:16:28.933Z,101285.78
2022-12-06T02:19:01.622Z,101276.97
2022-12-06T02:21:43.331Z,101274.16
2022-12-06T02:24:40.282Z,101269.75
2022-12-06T02:27:27.523Z,101279.56
2022-12-06T02:30:09.620Z,101274.16
2022-12-06T02:32:53.251Z,101270.44
2022-12-06T02:35:31.507Z,101269.75
2022-12-06T02:38:12.680Z,101264.34
2022-12-06T02:40:47.158Z,101261.91
2022-12-06T02:43:18.935Z,101263.63
2022-12-06T02:45:52.253Z,101254.53
2022-12-06T02:48:23.123Z,101247.44
2022-12-06T02:50:55.802Z,101251.09
2022-12-06T02:53:27.156Z,101244.59
2022-12-06T02:55:56.203Z,101247.28
2022-12-06T02:58:24.157Z,101236.63
2022-12-06T03:00:54.595Z,101224.72
2022-12-06T03:03:52.500Z,101224.56
2022-12-06T03:06:46.580Z,101226.56
2022-12-06T03:09:26.001Z,101219.44
2022-12-06T03:12:01.007Z,101204.56
2022-12-06T03:14:34.959Z,101211.91
2022-12-06T03:17:13.496Z,101205.50
2022-12-06T03:19:43.696Z,101213.84
2022-12-06T03:22:15.687Z,101203.19
2022-12-06T03:24:45.592Z,101195.59
2022-12-06T03:27:19.073Z,101197.09
2022-12-06T03:29:52.569Z,101188.25
2022-12-06T03:32:24.136Z,101194.41
2022-12-06T03:34:57.064Z,101195.34
2022-12-06T03:37:28.930Z,101203.59
2022-12-06T03:40:03.884Z,101201.47
2022-12-06T03:42:32.926Z,101202.56
2022-12-06T03:45:02.111Z,101182.06
2022-12-06T03:47:35.122Z,101178.25
2022-12-06T03:50:09.761Z,101197.31
2022-12-06T03:52:37.753Z,101192.06
2022-12-06T03:55:06.815Z,101188.50
2022-12-06T03:57:34.991Z,101187.50
2022-12-06T04:00:03.754Z,101186.53
2022-12-06T04:02:39.355Z,101187.25
2022-12-06T04:05:09.371Z,101179.06
2022-12-06T04:07:37.423Z,101174.66
2022-12-06T04:10:06.958Z,101179.06
2022-12-06T04:12:54.142Z,101175.72
2022-12-06T04:15:24.030Z,101175.88
2022-12-06T04:18:09.584Z,101168.63
2022-12-06T04:21:02.158Z,101165.66
2022-12-06T04:23:31.768Z,101174.75
2022-12-06T04:25:59.816Z,101168.63
2022-12-06T04:28:45.739Z,101165.09
2022-12-06T04:31:31.118Z,101161.53
2022-12-06T04:34:17.006Z,101156.13
2022-12-06T04:37:04.190Z,101158.69
2022-12-06T04:39:32.679Z,101133.78
2022-12-06T04:42:18.195Z,101147.19
2022-12-06T04:44:46.195Z,101139.09
2022-12-06T04:47:14.391Z,101134.00
2022-12-06T04:49:42.315Z,101124.09
2022-12-06T04:52:12.096Z,101127.50
2022-12-06T04:54:40.728Z,101126.66
2022-12-06T04:57:11.211Z,101121.13
2022-12-06T04:59:40.308Z,101116.56
2022-12-06T05:02:10.110Z,101122.84
2022-12-06T05:04:38.059Z,101114.75
2022-12-06T05:07:06.030Z,101117.44
2022-12-06T05:09:35.327Z,101117.28
2022-12-06T05:12:03.238Z,101124.41
2022-12-06T05:14:31.350Z,101114.47
2022-12-06T05:17:00.043Z,101116.56
2022-12-06T05:19:28.497Z,101111.03
2022-12-06T05:21:56.380Z,101101.09
2022-12-06T05:24:24.380Z,101100.13
2022-12-06T05:26:53.658Z,101098.13
2022-12-06T05:29:21.606Z,101096.56
2022-12-06T05:31:49.619Z,101086.75
2022-12-06T05:34:17.625Z,101092.13
2022-12-06T05:36:46.036Z,101089.16
2022-12-06T05:39:14.023Z,101087.47
2022-12-06T05:41:41.884Z,101076.81
2022-12-06T05:44:12.089Z,101078.53
2022-12-06T05:46:39.956Z,101078.66
2022-12-06T05:49:07.933Z,101094.84
2022-12-06T05:51:35.809Z,101084.91
2022-12-06T05:54:06.603Z,101079.38
2022-12-06T05:56:35.234Z,101076.81
2022-12-06T05:59:03.382Z,101077.66
2022-12-06T06:01:32.735Z,101080.94
2022-12-06T06:04:01.774Z,101073.56
2022-12-06T06:06:29.726Z,101077.84
2022-12-06T06:08:57.679Z,101071.41
2022-12-06T06:11:25.539Z,101054.25
2022-12-06T06:13:54.499Z,101060.34
2022-12-06T06:16:22.593Z,101046.16
2022-12-06T06:18:52.652Z,101059.38
2022-12-06T06:21:20.784Z,101054.25
2022-12-06T06:23:48.715Z,101052.41
2022-12-06T06:26:16.659Z,101053.13
2022-12-06T06:28:44.581Z,101044.16
2022-12-06T06:31:12.551Z,101048.44
2022-12-06T06:33:40.439Z,101037.78
2022-12-06T06:36:10.631Z,101033.25
2022-12-06T06:38:38.938Z,101036.78
2022-12-06T06:41:07.672Z,101033.78
2022-12-06T06:43:35.733Z,101037.50
2022-12-06T06:46:06.850Z,101034.53
2022-12-06T06:48:38.545Z,101030.25
2022-12-06T06:51:09.838Z,101025.25
2022-12-06T06:53:38.013Z,101033.09
2022-12-06T06:56:07.209Z,101032.97
2022-12-06T06:58:35.288Z,101036.38
2022-12-06T07:01:05.613Z,101028.13
2022-12-06T07:03:33.611Z,101005.66
2022-12-06T07:06:03.291Z,101027.13
2022-12-06T07:08:33.028Z,101026.28
2022-12-06T07:11:01.323Z,101017.19
2022-12-06T07:13:30.275Z,101004.41
2022-12-06T07:15:59.511Z,101014.50
2022-12-06T07:18:27.428Z,101015.31
2022-12-06T07:21:00.605Z,101019.03
2022-12-06T07:23:29.068Z,101020.16
2022-12-06T07:26:07.527Z,101014.63
2022-12-06T07:28:37.141Z,101014.78
2022-12-06T07:31:12.635Z,101020.28
2022-12-06T07:33:42.659Z,101018.72
2022-12-06T07:36:13.234Z,101009.06
2022-12-06T07:38:42.830Z,101001.69
2022-12-06T07:41:40.081Z,101011.66
2022-12-06T07:44:32.733Z,100996.31
2022-12-06T07:47:00.955Z,100998.56
2022-12-06T07:49:29.548Z,101004.97
2022-12-06T07:51:58.302Z,101013.06
2022-12-06T07:54:26.603Z,101013.75
2022-12-06T07:56:56.558Z,101012.78
2022-12-06T07:59:24.878Z,101017.19
2022-12-06T08:01:53.412Z,101009.94
2022-12-06T08:04:21.931Z,100994.88
2022-12-06T08:06:49.903Z,101001.56
2022-12-06T08:09:17.961Z,101001.44
2022-12-06T08:11:45.933Z,101001.44
2022-12-06T08:14:15.886Z,101006.41
2022-12-06T08:16:43.833Z,101004.41
2022-12-06T08:19:11.715Z,101003.13
2022-12-06T08:21:39.633Z,101001.25
2022-12-06T08:24:08.122Z,101000.00
2022-12-06T08:26:36.681Z,101000.69
2022-12-06T08:29:05.137Z,101009.66
2022-12-06T08:31:35.543Z,101006.97
2022-12-06T08:34:04.141Z,101009.94
2022-12-06T08:36:32.526Z,101012.50
2022-12-06T08:39:02.109Z,101003.38
2022-12-06T08:41:47.219Z,101013.91
2022-12-06T08:44:16.628Z,101003.88
2022-12-06T08:46:46.747Z,101002.41
2022-12-06T08:49:16.107Z,100997.72
2022-12-06T08:51:44.533Z,100992.47
2022-12-06T08:54:15.071Z,100998.16
2022-12-06T08:56:43.379Z,100998.03
2022-12-06T08:59:11.972Z,100986.22
2022-12-06T09:01:39.957Z,100983.22
2022-12-06T09:04:10.825Z,100986.50
2022-12-06T09:06:40.487Z,100983.09
2022-12-06T09:09:09.595Z,100978.53
2022-12-06T09:11:38.081Z,100975.13
2022-12-06T09:14:07.343Z,100979.38
2022-12-06T09:16:35.373Z,100969.59
2022-12-06T09:19:03.426Z,100978.53
2022-12-06T09:21:34.310Z,100970.13
2022-12-06T09:24:02.315Z,100964.72
2022-12-06T09:26:30.309Z,100955.63
2022-12-06T09:28:59.824Z,100957.34
2022-12-06T09:31:27.828Z,100958.34
2022-12-06T09:33:55.921Z,100956.22
2022-12-06T09:36:25.846Z,100946.69
2022-12-06T09:38:58.413Z,100952.09
2022-12-06T09:41:47.443Z,100937.72
2022-12-06T09:44:32.784Z,100942.25
2022-12-06T09:47:13.660Z,100933.31
2022-12-06T09:49:52.467Z,100937.88
2022-12-06T09:52:30.887Z,100934.16
2022-12-06T09:55:19.819Z,100933.47
2022-12-06T09:57:56.151Z,100910.41
2022-12-06T10:00:25.562Z,100935.91
2022-12-06T10:03:37.799Z,100923.09
2022-12-06T10:06:12.357Z,100925.78
2022-12-06T10:08:57.883Z,100927.19
2022-12-06T10:11:44.539Z,100921.78
2022-12-06T10:14:28.132Z,100915.25
2022-12-06T10:17:08.668Z,100913.28
2022-12-06T10:19:51.560Z,100914.66
2022-12-06T10:22:28.431Z,100922.47
2022-12-06T10:25:04.075Z,100886.38
2022-12-06T10:27:39.409Z,100912.09
2022-12-06T10:30:10.810Z,100915.66
2022-12-06T10:32:54.440Z,100908.69
2022-12-06T10:35:42.466Z,100893.47
2022-12-06T10:38:23.099Z,100908.81
2022-12-06T10:41:01.340Z,100903.16
2022-12-06T10:43:37.730Z,100905.88
2022-12-06T10:46:28.657Z,100897.59
2022-12-06T10:49:07.545Z,100892.75
2022-12-06T10:51:43.962Z,100883.22
2022-12-06T10:54:24.617Z,100879.19
2022-12-06T10:56:56.696Z,100879.06
2022-12-06T10:59:37.589Z,100884.31
2022-12-06T11:02:21.416Z,100882.75
2022-12-06T11:04:51.268Z,100872.13
2022-12-06T11:07:25.132Z,100880.06
2022-12-06T11:09:57.271Z,100875.34
2022-12-06T11:12:31.439Z,100861.84
2022-12-06T11:15:07.284Z,100859.69
2022-12-06T11:17:40.554Z,100865.97
2022-12-06T11:20:17.120Z,100868.03
2022-12-06T11:22:54.626Z,100862.50
2022-12-06T11:25:28.146Z,100859.94
2022-12-06T11:28:01.891Z,100861.66
2022-12-06T11:30:33.780Z,100849.97
2022-12-06T11:33:02.931Z,100849.56
2022-12-06T11:35:30.940Z,100850.38
2022-12-06T11:38:03.182Z,100848.25
2022-12-06T11:40:34.244Z,100827.81
2022-12-06T11:43:06.770Z,100833.06
2022-12-06T11:45:40.814Z,100841.50
2022-12-06T11:48:16.457Z,100845.63
2022-12-06T11:50:45.901Z,100844.09
2022-12-06T11:53:20.838Z,100845.06
2022-12-06T11:55:53.490Z,100847.09
2022-12-06T11:58:28.011Z,100846.09
2022-12-06T12:01:01.534Z,100844.22
2022-12-06T12:03:31.365Z,100840.53
2022-12-06T12:06:10.151Z,100842.94
2022-12-06T12:08:38.828Z,100841.22
2022-12-06T12:11:06.879Z,100835.28
2022-12-06T12:13:47.647Z,100827.69
2022-12-06T12:16:20.007Z,100824.31
2022-12-06T12:18:54.927Z,100821.75
2022-12-06T12:21:36.195Z,100820.91
2022-12-06T12:24:05.037Z,100816.09
2022-12-06T12:26:41.509Z,100817.81
2022-12-06T12:29:18.778Z,100815.81
2022-12-06T12:31:56.938Z,100808.38
2022-12-06T12:34:28.007Z,100811.25
2022-12-06T12:36:58.830Z,100804.81
2022-12-06T12:39:33.136Z,100797.72
2022-12-06T12:42:02.784Z,100802.59
2022-12-06T12:44:38.764Z,100800.72
2022-12-06T12:47:18.822Z,100799.75
2022-12-06T12:50:02.548Z,100796.19
2022-12-06T12:52:36.610Z,100792.78
2022-12-06T12:55:17.287Z,100789.91
2022-12-06T12:57:47.758Z,100786.53
2022-12-06T13:00:16.997Z,100783.97
2022-12-06T13:02:51.338Z,100790.78
2022-12-06T13:05:45.021Z,100794.94
2022-12-06T13:08:16.546Z,100796.19
2022-12-06T13:10:47.737Z,100789.91
2022-12-06T13:13:19.454Z,100787.06
2022-12-06T13:15:50.334Z,100790.47
2022-12-06T13:18:23.750Z,100783.91
2022-12-06T13:20:53.657Z,100791.00
2022-12-06T13:23:25.233Z,100787.31
2022-12-06T13:26:02.381Z,100784.31
2022-12-06T13:28:33.993Z,100790.56
2022-12-06T13:31:06.165Z,100794.72
2022-12-06T13:33:40.884Z,100775.94
2022-12-06T13:36:12.613Z,100766.28
2022-12-06T13:38:42.474Z,100765.44
2022-12-06T13:41:14.270Z,100758.56
2022-12-06T13:43:51.713Z,100770.44
2022-12-06T13:46:31.447Z,100773.00
2022-12-06T13:49:03.576Z,100777.72
2022-12-06T13:51:48.251Z,100772.53
2022-12-06T13:54:37.103Z,100775.56
2022-12-06T13:57:23.721Z,100777.72
2022-12-06T13:59:51.974Z,100774.00
2022-12-06T14:02:53.374Z,100764.59
2022-12-06T14:08:33.467Z,100766.75
2022-12-06T14:11:24.374Z,100770.84
2022-12-06T14:14:03.342Z,100776.09
2022-12-06T14:16:35.710Z,100759.72
2022-12-06T14:19:13.464Z,100764.81
2022-12-06T14:21:51.459Z,100751.88
2022-12-06T14:24:32.348Z,100757.00
2022-12-06T14:27:08.510Z,100749.41
2022-12-06T14:29:36.514Z,100747.00
2022-12-06T14:32:04.553Z,100758.56
2022-12-06T14:34:34.508Z,100760.22
2022-12-06T14:37:19.791Z,100753.53
2022-12-06T14:39:52.824Z,100749.59
2022-12-06T14:42:37.945Z,100753.16
2022-12-06T14:45:08.220Z,100737.09
2022-12-06T14:47:36.284Z,100737.97
2022-12-06T14:50:26.084Z,100744.19
2022-12-06T14:53:01.461Z,100743.50
2022-12-06T14:55:30.762Z,100737.25
2022-12-06T14:58:01.006Z,100737.41
2022-12-06T15:00:35.979Z,100745.81
2022-12-06T15:03:30.906Z,100750.53
2022-12-06T15:06:15.066Z,100740.03
2022-12-06T15:08:50.399Z,100751.53
2022-12-06T15:11:48.666Z,100745.97
2022-12-06T15:14:18.840Z,100745.88
2022-12-06T15:16:58.570Z,100751.81
2022-12-06T15:19:26.891Z,100748.13
2022-12-06T15:21:55.477Z,100732.13
2022-12-06T15:24:27.797Z,100747.13
2022-12-06T15:26:56.187Z,100739.03
2022-12-06T15:29:24.704Z,100741.72
2022-12-06T15:31:55.709Z,100740.19
2022-12-06T15:34:29.463Z,100732.59
2022-12-06T15:37:30.356Z,100733.94
2022-12-06T15:39:48.620Z,100722.41
2022-12-06T15:42:19.994Z,100730.38
2022-12-06T15:44:49.875Z,100733.06
2022-12-06T15:47:19.896Z,100731.22
2022-12-06T15:49:48.966Z,100741.16
2022-12-06T15:52:18.136Z,100731.06
2022-12-06T15:54:47.891Z,100734.31
2022-12-06T15:57:15.936Z,100722.19
2022-12-06T15:59:43.845Z,100721.00
2022-12-06T16:02:15.882Z,100718.00
2022-12-06T16:04:44.485Z,100716.34
2022-12-06T16:07:18.662Z,100708.06
2022-12-06T16:09:48.943Z,100712.16
2022-12-06T16:12:17.336Z,100723.13
2022-12-06T16:14:45.628Z,100709.75
2022-12-06T16:17:13.514Z,100706.03
2022-12-06T16:19:59.167Z,100697.09
2022-12-06T16:22:40.975Z,100701.50
2022-12-06T16:25:10.807Z,100698.78
2022-12-06T16:27:38.778Z,100692.53
2022-12-06T16:30:09.121Z,100694.53
2022-12-06T16:32:37.583Z,100690.13
2022-12-06T16:35:05.987Z,100686.72
2022-12-06T16:37:33.998Z,100689.75
2022-12-06T16:40:02.146Z,100691.75
2022-12-06T16:42:31.491Z,100685.66
2022-12-06T16:44:59.705Z,100689.53
2022-12-06T16:49:54.609Z,100683.94
2022-12-06T16:52:22.510Z,100685.81
2022-12-06T16:54:50.479Z,100695.22
2022-12-06T16:57:19.607Z,100684.72
2022-12-06T16:59:49.378Z,100685.88
2022-12-06T17:02:27.721Z,100682.19
2022-12-06T17:04:56.707Z,100697.84
2022-12-06T17:07:24.771Z,100696.31
2022-12-06T17:09:52.725Z,100707.78
2022-12-06T17:12:21.340Z,100715.91
2022-12-06T17:14:50.747Z,100718.59
2022-12-06T17:17:21.609Z,100706.97
2022-12-06T17:19:50.635Z,100709.97
2022-12-06T17:22:19.059Z,100702.00
2022-12-06T17:24:47.139Z,100702.16
2022-12-06T17:27:15.695Z,100706.88
2022-12-06T17:29:44.449Z,100707.19
2022-12-06T17:32:14.176Z,100708.47
2022-12-06T17:34:42.059Z,100704.22
2022-12-06T17:37:10.140Z,100701.69
2022-12-06T17:39:38.102Z,100705.66
2022-12-06T17:42:23.736Z,100702.16
2022-12-06T17:44:51.919Z,100702.56
2022-12-06T17:47:21.340Z,100706.28
2022-12-06T17:49:49.293Z,100700.19
2022-12-06T17:52:17.802Z,100701.88
2022-12-06T17:54:45.948Z,100706.44
2022-12-06T17:57:17.619Z,100702.56
2022-12-06T17:59:46.501Z,100687.53
2022-12-06T18:02:17.837Z,100691.63
2022-12-06T18:04:48.508Z,100685.53
2022-12-06T18:07:17.460Z,100675.75
2022-12-06T18:09:45.978Z,100685.97
2022-12-06T18:12:16.773Z,100687.25
2022-12-06T18:14:44.831Z,100677.03
2022-12-06T18:17:13.405Z,100681.59
2022-12-06T18:19:41.544Z,100694.28
2022-12-06T18:22:10.787Z,100694.09
2022-12-06T18:24:38.822Z,100689.56
2022-12-06T18:27:07.784Z,100693.72
2022-12-06T18:29:36.287Z,100683.50
2022-12-06T18:32:04.638Z,100683.78
2022-12-06T18:34:32.713Z,100687.63
2022-12-06T18:37:00.734Z,100686.25
2022-12-06T18:39:30.012Z,100678.31
2022-12-06T18:41:57.917Z,100675.91
2022-12-06T18:44:26.801Z,100682.00
2022-12-06T18:46:54.690Z,100669.50
2022-12-06T18:49:22.548Z,100677.59
2022-12-06T18:51:50.432Z,100683.72
2022-12-06T18:54:18.607Z,100672.06
2022-12-06T18:56:47.914Z,100672.91
2022-12-06T18:59:15.935Z,100677.47
2022-12-06T19:01:43.907Z,100668.22
2022-12-06T19:04:16.436Z,100670.06
2022-12-06T19:06:45.027Z,100665.81
2022-12-06T19:09:14.485Z,100647.09
2022-12-06T19:11:45.796Z,100663.09
2022-12-06T19:14:16.455Z,100667.53
2022-12-06T19:16:46.565Z,100661.56
2022-12-06T19:19:18.540Z,100663.00
2022-12-06T19:21:47.654Z,100627.84
2022-12-06T19:24:17.405Z,100647.84
2022-12-06T19:26:45.684Z,100643.59
2022-12-06T19:29:15.595Z,100629.53
2022-12-06T19:31:43.763Z,100641.47
2022-12-06T19:34:17.029Z,100635.38
2022-12-06T19:36:45.482Z,100629.59
2022-12-06T19:39:14.927Z,100638.38
2022-12-06T19:42:00.932Z,100632.97
2022-12-06T19:44:31.091Z,100637.53
2022-12-06T19:46:59.583Z,100638.63
2022-12-06T19:49:28.535Z,100639.66
2022-12-06T19:51:57.218Z,100635.25
2022-12-06T19:54:26.696Z,100635.41
2022-12-06T19:56:56.961Z,100632.69
2022-12-06T19:59:27.528Z,100631.56
2022-12-06T20:01:58.330Z,100626.16
2022-12-06T20:04:28.850Z,100618.06
2022-12-06T20:06:57.419Z,100625.91
2022-12-06T20:09:27.922Z,100636.53
2022-12-06T20:12:03.466Z,100614.09
2022-12-06T20:14:37.787Z,100627.47
2022-12-06T20:17:09.384Z,100626.44
2022-12-06T20:19:37.503Z,100612.66
2022-12-06T20:22:05.791Z,100622.75
2022-12-06T20:24:34.385Z,100623.59
2022-12-06T20:27:02.890Z,100621.03
2022-12-06T20:29:32.552Z,100628.28
2022-12-06T20:32:01.349Z,100634.53
2022-12-06T20:34:34.397Z,100631.13
2022-12-06T20:37:04.626Z,100626.88
2022-12-06T20:39:35.531Z,100630.69
2022-12-06T20:42:05.996Z,100625.06
2022-12-06T20:44:34.871Z,100621.78
2022-12-06T20:47:02.930Z,100614.84
2022-12-06T20:49:32.332Z,100622.09
2022-12-06T20:52:02.751Z,100613.44
2022-12-06T20:54:30.839Z,100617.84
2022-12-06T20:56:58.765Z,100614.28
2022-12-06T20:59:26.896Z,100611.59
2022-12-06T21:01:55.000Z,100604.63
2022-12-06T21:04:23.083Z,100612.72
2022-12-06T21:06:52.367Z,100610.19
2022-12-06T21:09:20.360Z,100602.38
2022-12-06T21:11:48.443Z,100597.97
2022-12-06T21:14:17.988Z,100599.69
2022-12-06T21:16:45.936Z,100603.53
2022-12-06T21:19:17.867Z,100607.78
2022-12-06T21:21:47.571Z,100602.09
2022-12-06T21:24:20.191Z,100606.34
2022-12-06T21:26:49.116Z,100606.47
2022-12-06T21:29:17.945Z,100612.72
2022-12-06T21:31:46.391Z,100605.34
2022-12-06T21:34:14.336Z,100615.13
2022-12-06T21:36:42.711Z,100605.03
2022-12-06T21:39:12.499Z,100609.44
2022-12-06T21:41:42.350Z,100613.84
2022-12-06T21:44:10.843Z,100619.22
2022-12-06T21:46:39.030Z,100619.22
2022-12-06T21:49:07.159Z,100616.53
2022-12-06T21:51:35.160Z,100609.88
2022-12-06T21:54:03.188Z,100610.56
2022-12-06T21:56:33.595Z,100596.09
2022-12-06T21:59:03.363Z,100604.31
2022-12-06T22:01:32.673Z,100555.81
2022-12-06T22:04:04.550Z,100600.72
2022-12-06T22:06:33.629Z,100604.25
2022-12-06T22:09:03.351Z,100612.91
2022-12-06T22:11:31.651Z,100612.75
2022-12-06T22:14:00.192Z,100612.75
2022-12-06T22:16:30.369Z,100603.28
2022-12-06T22:18:59.132Z,100596.91
2022-12-06T22:21:28.804Z,100602.75
2022-12-06T22:23:58.532Z,100603.66
2022-12-06T22:26:29.378Z,100603.53
2022-12-06T22:28:58.760Z,100594.34
2022-12-06T22:31:30.762Z,100599.88
2022-12-06T22:33:59.401Z,100598.59
2022-12-06T22:36:28.588Z,100593.50
2022-12-06T22:38:59.732Z,100585.28
2022-12-06T22:41:29.810Z,100586.66
2022-12-06T22:43:59.890Z,100583.41
2022-12-06T22:46:30.746Z,100584.94
2022-12-06T22:48:59.987Z,100579.38
2022-12-06T22:51:29.772Z,100581.97
2022-12-06T22:53:59.156Z,100569.22
2022-12-06T22:56:28.153Z,100589.03
2022-12-06T22:58:57.162Z,100588.88
2022-12-06T23:01:27.327Z,100582.31
2022-12-06T23:03:57.046Z,100591.97
2022-12-06T23:06:26.371Z,100591.84
2022-12-06T23:08:55.253Z,100583.56
2022-12-06T23:11:24.859Z,100573.66
2022-12-06T23:13:52.987Z,100578.44
2022-12-06T23:16:23.301Z,100563.84
2022-12-06T23:18:51.852Z,100569.97
2022-12-06T23:21:23.373Z,100585.53
2022-12-06T23:23:53.092Z,100584.78
2022-12-06T23:26:23.137Z,100594.56
2022-12-06T23:28:51.474Z,100593.69
2022-12-06T23:31:21.567Z,100586.16
2022-12-06T23:33:53.229Z,100592.53
2022-12-06T23:36:25.701Z,100585.38
2022-12-06T23:38:53.852Z,100585.03
2022-12-06T23:41:24.069Z,100587.31
2022-12-06T23:43:53.392Z,100591.41
2022-12-06T23:46:24.808Z,100582.31
2022-12-06T23:48:53.569Z,100578.06
2022-12-06T23:51:24.811Z,100591.78
2022-12-06T23:53:54.168Z,100593.50
2022-12-06T23:56:23.418Z,100594.88
2022-12-06T23:58:52.330Z,100584.94
